Time;durP1;ratioP1;P1;durP2;ratioP2;P2;SDS_P1;SDS_P2;PMS_P1;PMS_P2;Temp;Humidity;BMP_temperature;BMP_pressure;BME280_temperature;BME280_humidity;BME280_pressure;Samples;Min_cycle;Max_cycle;Signal;HPM_P1;HPM_P2
2023/07/08 00:01:54;;;;;;;19.97;13.20;;;;;;;20.33;93.52;95442.38;5049164;28;20228;-74
2023/07/08 00:04:20;;;;;;;19.97;13.60;;;;;;;20.12;94.19;95446.63;5048888;28;20733;-74
2023/07/08 00:06:45;;;;;;;22.53;13.80;;;;;;;20.09;94.17;95439.94;5034955;28;20232;-75
2023/07/08 00:09:15;;;;;;;25.20;14.10;;;;;;;20.20;94.01;95440.06;5022656;28;20691;-75
2023/07/08 00:11:40;;;;;;;21.60;13.87;;;;;;;20.12;94.39;95435.97;5048751;28;20355;-75
2023/07/08 00:14:06;;;;;;;19.47;13.70;;;;;;;20.07;94.50;95433.25;5019518;28;20236;-74
2023/07/08 00:16:31;;;;;;;20.70;14.17;;;;;;;20.06;94.69;95437.75;5036632;28;20788;-76
2023/07/08 00:18:57;;;;;;;20.40;14.67;;;;;;;19.97;95.01;95423.28;5044635;28;20229;-75
2023/07/08 00:21:22;;;;;;;23.67;14.83;;;;;;;19.98;94.46;95419.59;5031803;28;20234;-75
2023/07/08 00:23:49;;;;;;;19.57;13.97;;;;;;;20.03;94.83;95432.16;5010457;28;20240;-74
2023/07/08 00:26:25;;;;;;;23.80;14.57;;;;;;;19.96;94.16;95427.00;5033648;28;20327;-76
2023/07/08 00:28:51;;;;;;;20.17;13.77;;;;;;;19.99;94.74;95418.53;5022554;28;20256;-74
2023/07/08 00:31:16;;;;;;;20.50;14.10;;;;;;;19.94;94.59;95421.13;5006576;28;20303;-75
2023/07/08 00:33:42;;;;;;;19.67;13.93;;;;;;;20.04;94.71;95417.78;5012733;28;20235;-75
2023/07/08 00:36:14;;;;;;;24.13;13.90;;;;;;;19.99;94.42;95405.25;5019147;28;20311;-75
2023/07/08 00:38:44;;;;;;;19.83;14.07;;;;;;;19.95;94.69;95414.75;5035572;28;20747;-75
2023/07/08 00:41:16;;;;;;;21.37;13.77;;;;;;;19.95;95.02;95416.59;5031614;28;20233;-75
2023/07/08 00:43:52;;;;;;;19.90;13.77;;;;;;;19.83;95.07;95408.75;5050860;28;20802;-75
2023/07/08 00:46:23;;;;;;;20.63;14.27;;;;;;;19.85;95.41;95405.84;5034744;28;20238;-75
2023/07/08 00:48:49;;;;;;;18.97;13.53;;;;;;;19.91;95.09;95408.34;5023975;28;20749;-75
2023/07/08 00:51:22;;;;;;;22.97;13.93;;;;;;;19.99;94.37;95404.47;5037569;28;20921;-75
2023/07/08 00:53:47;;;;;;;20.97;13.27;;;;;;;20.01;94.61;95397.81;5010860;28;20291;-75
2023/07/08 00:56:26;;;;;;;18.30;12.73;;;;;;;19.93;94.48;95400.94;5048747;28;20228;-75
2023/07/08 00:58:56;;;;;;;19.27;13.03;;;;;;;19.90;94.47;95400.59;5051141;28;20718;-75
2023/07/08 01:01:21;;;;;;;18.23;13.10;;;;;;;19.90;94.41;95401.41;5018331;28;20240;-75
2023/07/08 01:04:09;;;;;;;20.93;13.27;;;;;;;19.88;94.56;95397.38;5029105;28;20917;-75
2023/07/08 01:06:39;;;;;;;20.03;12.73;;;;;;;19.87;94.54;95388.59;5012224;28;20290;-75
2023/07/08 01:09:05;;;;;;;19.60;12.67;;;;;;;19.71;94.97;95388.63;5002388;28;20214;-75
2023/07/08 01:11:31;;;;;;;19.13;12.73;;;;;;;19.81;95.09;95383.47;5032159;28;20239;-75
2023/07/08 01:13:58;;;;;;;17.03;12.30;;;;;;;19.84;95.27;95388.31;5010512;28;20229;-75
2023/07/08 01:16:23;;;;;;;18.83;12.13;;;;;;;19.78;94.83;95382.09;5009723;28;20313;-76
2023/07/08 01:18:52;;;;;;;20.10;12.40;;;;;;;19.65;95.48;95385.13;5018821;28;20319;-75
2023/07/08 01:21:38;;;;;;;17.40;12.57;;;;;;;19.66;95.66;95383.25;5001386;28;20251;-75
2023/07/08 01:24:05;;;;;;;16.63;12.27;;;;;;;19.56;95.88;95380.47;5012885;28;20218;-75
2023/07/08 01:26:30;;;;;;;16.80;12.00;;;;;;;19.58;96.11;95391.66;5017499;28;20230;-75
2023/07/08 01:28:56;;;;;;;16.70;12.20;;;;;;;19.66;95.44;95384.06;5031674;28;20286;-75
2023/07/08 01:31:22;;;;;;;16.57;11.97;;;;;;;19.71;95.21;95380.66;5018246;28;20300;-75
2023/07/08 01:33:47;;;;;;;20.47;11.90;;;;;;;19.70;95.44;95379.88;5008608;28;20229;-75
2023/07/08 01:36:13;;;;;;;17.67;11.50;;;;;;;19.82;94.91;95377.13;5014511;28;20225;-75
2023/07/08 01:38:38;;;;;;;20.03;12.27;;;;;;;19.79;94.94;95383.72;5014166;28;20233;-76
2023/07/08 01:41:04;;;;;;;17.97;12.20;;;;;;;19.53;95.35;95375.63;4994691;28;20263;-75
2023/07/08 01:43:29;;;;;;;17.07;11.67;;;;;;;19.61;95.09;95377.91;5017328;28;20241;-75
2023/07/08 01:45:55;;;;;;;19.60;12.30;;;;;;;19.70;94.64;95376.44;5014967;28;20253;-75
2023/07/08 01:48:22;;;;;;;16.63;11.83;;;;;;;19.70;94.92;95371.91;5025741;28;20229;-75
2023/07/08 01:50:55;;;;;;;18.37;11.83;;;;;;;19.72;94.81;95369.81;5013903;28;20248;-75
2023/07/08 01:53:30;;;;;;;16.20;11.83;;;;;;;19.74;94.00;95373.03;5025691;28;20234;-75
2023/07/08 01:55:56;;;;;;;19.10;12.63;;;;;;;19.69;94.43;95372.16;5032037;28;20228;-75
2023/07/08 01:58:21;;;;;;;19.37;12.17;;;;;;;19.85;93.79;95366.78;5033446;28;20702;-74
2023/07/08 02:00:48;;;;;;;20.70;12.27;;;;;;;19.67;94.48;95356.47;5027307;28;20237;-75
2023/07/08 02:03:14;;;;;;;17.27;12.60;;;;;;;19.74;94.50;95357.09;5029584;28;20237;-75
2023/07/08 02:05:40;;;;;;;16.90;11.90;;;;;;;19.75;94.46;95358.69;5043998;28;20255;-74
2023/07/08 02:08:05;;;;;;;17.97;11.80;;;;;;;19.77;94.19;95364.56;5050979;28;20722;-74
2023/07/08 02:10:31;;;;;;;19.03;12.57;;;;;;;19.74;94.14;95369.56;5017258;28;20284;-77
2023/07/08 02:12:56;;;;;;;19.50;11.97;;;;;;;19.61;94.80;95376.03;5037731;28;20252;-75
2023/07/08 02:15:22;;;;;;;18.13;11.80;;;;;;;19.66;95.05;95383.25;5057495;28;20970;-76
2023/07/08 02:17:49;;;;;;;16.27;11.70;;;;;;;19.60;94.96;95379.75;5038009;28;20710;-75
2023/07/08 02:20:14;;;;;;;17.90;11.70;;;;;;;19.58;94.93;95389.00;5013372;28;20218;-75
2023/07/08 02:22:40;;;;;;;16.23;11.37;;;;;;;19.66;94.82;95385.91;5040129;28;20944;-75
2023/07/08 02:25:06;;;;;;;18.33;11.80;;;;;;;19.71;94.35;95386.78;5047682;28;20221;-75
2023/07/08 02:27:31;;;;;;;17.23;11.77;;;;;;;19.67;94.88;95384.88;5038128;28;20366;-75
2023/07/08 02:29:56;;;;;;;18.43;11.50;;;;;;;19.71;94.18;95392.09;5051736;28;20233;-74
2023/07/08 02:32:22;;;;;;;17.40;11.20;;;;;;;19.66;94.66;95404.50;5052219;28;20226;-75
2023/07/08 02:34:47;;;;;;;16.33;10.83;;;;;;;19.61;94.83;95407.88;5033215;28;20230;-75
2023/07/08 02:37:13;;;;;;;17.43;11.57;;;;;;;19.60;94.96;95408.16;5043131;28;20222;-75
2023/07/08 02:39:38;;;;;;;15.57;11.20;;;;;;;19.63;94.58;95408.44;5025840;28;20719;-75
2023/07/08 02:42:04;;;;;;;19.13;11.70;;;;;;;19.46;95.14;95405.81;5026941;28;21056;-75
2023/07/08 02:44:29;;;;;;;16.33;11.23;;;;;;;19.46;94.75;95407.69;5035080;28;20677;-74
2023/07/08 02:46:55;;;;;;;15.63;11.07;;;;;;;19.54;95.10;95406.44;5032978;28;20236;-75
2023/07/08 02:49:20;;;;;;;15.43;11.07;;;;;;;19.54;94.70;95411.75;5029116;28;20237;-74
2023/07/08 02:51:46;;;;;;;17.27;11.00;;;;;;;19.37;95.34;95411.75;5040959;28;20232;-75
2023/07/08 02:54:11;;;;;;;16.97;10.60;;;;;;;19.44;95.27;95423.84;5032729;28;20259;-75
2023/07/08 02:56:37;;;;;;;19.07;10.93;;;;;;;19.39;95.67;95430.94;5018524;28;20246;-75
2023/07/08 02:59:11;;;;;;;17.10;11.03;;;;;;;19.41;95.49;95434.16;5051745;28;20254;-75
2023/07/08 03:01:41;;;;;;;19.77;11.37;;;;;;;19.39;95.30;95431.72;5036175;28;20719;-75
2023/07/08 03:04:08;;;;;;;20.07;12.10;;;;;;;19.39;95.60;95422.97;5033076;28;20306;-75
2023/07/08 03:06:34;;;;;;;19.60;11.73;;;;;;;19.37;95.54;95423.19;5045562;28;20229;-75
2023/07/08 03:09:00;;;;;;;15.40;11.47;;;;;;;19.26;95.64;95428.56;5039752;28;20243;-76
2023/07/08 03:11:25;;;;;;;19.43;11.50;;;;;;;19.39;95.40;95417.66;5029510;28;20725;-76
2023/07/08 03:13:51;;;;;;;17.30;11.60;;;;;;;19.35;95.54;95417.28;5048534;28;20237;-74
2023/07/08 03:16:16;;;;;;;16.80;11.40;;;;;;;19.28;96.15;95419.31;5046820;28;20240;-75
2023/07/08 03:18:45;;;;;;;18.10;11.30;;;;;;;19.33;95.23;95422.03;5057630;28;20290;-75
2023/07/08 03:21:12;;;;;;;18.30;11.63;;;;;;;19.29;96.20;95412.97;5039141;28;20268;-76
2023/07/08 03:23:38;;;;;;;18.40;11.50;;;;;;;19.29;96.18;95420.94;5013632;28;20236;-77
2023/07/08 03:26:03;;;;;;;17.40;11.57;;;;;;;19.33;95.79;95421.22;5051496;28;20233;-74
2023/07/08 03:28:29;;;;;;;16.57;10.50;;;;;;;19.24;96.03;95425.34;5059393;28;20236;-75
2023/07/08 03:30:54;;;;;;;18.13;11.40;;;;;;;19.33;95.98;95431.84;5018270;28;20234;-75
2023/07/08 03:33:20;;;;;;;15.40;10.40;;;;;;;19.34;95.95;95417.53;5044660;28;20244;-75
2023/07/08 03:35:45;;;;;;;16.20;10.30;;;;;;;19.18;96.14;95407.72;5037424;28;20796;-76
2023/07/08 03:38:11;;;;;;;17.87;10.10;;;;;;;19.35;95.52;95416.47;5036987;28;20226;-75
2023/07/08 03:40:36;;;;;;;15.00;9.67;;;;;;;19.30;96.02;95416.41;5052496;28;20236;-75
2023/07/08 03:43:02;;;;;;;16.70;10.43;;;;;;;19.50;95.50;95411.44;5049311;28;20226;-75
2023/07/08 03:45:27;;;;;;;18.33;9.93;;;;;;;19.56;94.97;95417.66;5047301;28;20233;-74
2023/07/08 03:47:53;;;;;;;15.73;9.77;;;;;;;19.49;94.83;95405.34;5033926;28;20230;-75
2023/07/08 03:50:23;;;;;;;14.93;10.00;;;;;;;19.47;95.15;95399.47;5010135;28;20305;-76
2023/07/08 03:52:50;;;;;;;16.17;9.87;;;;;;;19.39;95.54;95407.81;5018899;28;20234;-75
2023/07/08 03:55:15;;;;;;;14.40;9.73;;;;;;;19.43;95.45;95408.16;5032678;28;20225;-78
2023/07/08 03:57:41;;;;;;;13.67;9.47;;;;;;;19.55;95.22;95408.06;5052542;28;20689;-76
2023/07/08 04:00:09;;;;;;;15.43;9.73;;;;;;;19.55;95.12;95408.88;5034251;28;20229;-75
2023/07/08 04:02:39;;;;;;;15.30;9.53;;;;;;;19.43;95.26;95411.63;5048085;28;20348;-75
2023/07/08 04:05:05;;;;;;;16.07;9.77;;;;;;;19.43;95.33;95405.50;5016667;28;20287;-76
2023/07/08 04:07:31;;;;;;;16.50;9.47;;;;;;;19.49;95.52;95399.22;5041035;28;20320;-76
2023/07/08 04:09:56;;;;;;;13.43;8.97;;;;;;;19.60;95.14;95411.63;5031174;28;20236;-76
2023/07/08 04:12:21;;;;;;;17.00;9.30;;;;;;;19.63;94.66;95413.75;5016086;28;20230;-76
2023/07/08 04:14:47;;;;;;;14.23;9.00;;;;;;;19.67;94.98;95417.56;5053658;28;20286;-75
2023/07/08 04:17:12;;;;;;;12.40;8.60;;;;;;;19.65;94.77;95417.00;5053388;28;20744;-75
2023/07/08 04:19:39;;;;;;;14.43;8.90;;;;;;;19.66;94.92;95421.25;5050343;28;20695;-76
2023/07/08 04:22:05;;;;;;;17.97;9.20;;;;;;;19.44;95.10;95425.69;5028499;28;20283;-74
2023/07/08 04:24:31;;;;;;;15.33;9.37;;;;;;;19.56;94.66;95425.63;5026414;28;20719;-75
2023/07/08 04:26:56;;;;;;;15.00;8.87;;;;;;;19.65;94.84;95419.66;5039108;28;20233;-75
2023/07/08 04:29:22;;;;;;;14.17;9.03;;;;;;;19.62;94.59;95424.63;5018838;28;20295;-75
2023/07/08 04:31:47;;;;;;;13.87;8.77;;;;;;;19.67;94.68;95422.88;5035293;28;20341;-75
2023/07/08 04:34:13;;;;;;;16.10;8.53;;;;;;;19.84;94.13;95423.66;5034165;28;20749;-75
2023/07/08 04:36:39;;;;;;;17.10;8.80;;;;;;;19.83;94.03;95429.19;5023729;28;20719;-75
2023/07/08 04:39:05;;;;;;;12.27;8.30;;;;;;;19.97;93.69;95436.56;5036201;28;20257;-75
2023/07/08 04:41:31;;;;;;;12.83;8.77;;;;;;;19.95;93.48;95443.19;5033253;28;21198;-76
2023/07/08 04:44:00;;;;;;;13.17;8.97;;;;;;;19.79;93.80;95433.41;5033868;28;20231;-76
2023/07/08 04:46:34;;;;;;;13.90;8.87;;;;;;;19.84;94.06;95423.66;5040986;28;20252;-74
2023/07/08 04:49:03;;;;;;;16.83;9.40;;;;;;;19.82;93.88;95425.72;5047931;28;20252;-75
2023/07/08 04:51:29;;;;;;;14.83;9.53;;;;;;;19.79;93.68;95428.09;5038701;28;20230;-75
2023/07/08 04:53:54;;;;;;;14.20;8.97;;;;;;;19.75;94.25;95422.44;5037703;28;20236;-75
2023/07/08 04:56:20;;;;;;;14.33;9.60;;;;;;;19.76;94.55;95432.03;5026519;28;20710;-75
2023/07/08 04:58:45;;;;;;;16.97;9.60;;;;;;;19.68;94.70;95436.97;5040990;28;20220;-76
2023/07/08 05:01:11;;;;;;;15.83;9.83;;;;;;;19.67;94.92;95436.16;5048866;28;20216;-75
2023/07/08 05:03:36;;;;;;;15.80;9.17;;;;;;;19.79;94.71;95436.06;5050220;28;20761;-74
2023/07/08 05:06:02;;;;;;;13.93;9.60;;;;;;;19.94;94.00;95450.34;5025292;28;20235;-74
2023/07/08 05:08:27;;;;;;;14.17;9.23;;;;;;;20.09;92.99;95453.22;5041485;28;20225;-75
2023/07/08 05:10:53;;;;;;;13.10;9.10;;;;;;;20.06;93.23;95450.25;5025316;28;20232;-76
2023/07/08 05:13:18;;;;;;;14.30;9.33;;;;;;;20.29;91.91;95458.03;5030147;28;20228;-75
2023/07/08 05:15:43;;;;;;;13.00;8.97;;;;;;;20.23;92.14;95453.69;5028518;28;20232;-76
2023/07/08 05:18:09;;;;;;;17.97;10.10;;;;;;;20.25;91.74;95456.13;5012191;28;20667;-75
2023/07/08 05:20:36;;;;;;;15.63;9.20;;;;;;;20.75;89.17;95451.41;5026022;28;20249;-76
2023/07/08 05:23:02;;;;;;;15.37;9.17;;;;;;;20.75;89.21;95459.41;5029379;28;20257;-75
2023/07/08 05:25:30;;;;;;;15.13;9.33;;;;;;;20.41;90.67;95465.91;5020136;28;20225;-76
2023/07/08 05:27:56;;;;;;;13.43;9.13;;;;;;;20.27;91.34;95465.47;5038542;28;20681;-76
2023/07/08 05:30:21;;;;;;;12.60;8.93;;;;;;;20.23;91.82;95463.53;5047401;28;20221;-76
2023/07/08 05:32:47;;;;;;;14.67;8.90;;;;;;;20.26;91.71;95469.16;5017832;28;20225;-76
2023/07/08 05:35:12;;;;;;;14.37;9.07;;;;;;;20.20;91.40;95470.13;5038237;28;20868;-76
2023/07/08 05:37:39;;;;;;;16.07;9.33;;;;;;;20.29;91.16;95466.03;5033114;28;20316;-77
2023/07/08 05:40:06;;;;;;;17.37;9.07;;;;;;;20.24;91.00;95465.13;5019719;28;20221;-75
2023/07/08 05:42:32;;;;;;;14.03;9.20;;;;;;;20.14;91.29;95463.94;5026140;28;20225;-75
2023/07/08 05:44:57;;;;;;;18.20;9.80;;;;;;;20.34;90.91;95460.78;5051135;28;20236;-76
2023/07/08 05:47:23;;;;;;;13.97;8.77;;;;;;;20.37;90.43;95470.88;5019640;28;20232;-76
2023/07/08 05:49:49;;;;;;;13.37;8.83;;;;;;;20.41;90.53;95481.84;5009332;28;20259;-76
2023/07/08 05:52:14;;;;;;;12.80;9.00;;;;;;;20.39;90.27;95479.44;5021010;28;20229;-76
2023/07/08 05:54:40;;;;;;;13.80;9.37;;;;;;;20.55;90.09;95483.09;5008871;28;20226;-76
2023/07/08 05:57:06;;;;;;;15.13;9.63;;;;;;;20.59;89.61;95487.66;5031603;28;20595;-76
2023/07/08 05:59:32;;;;;;;14.70;9.23;;;;;;;20.56;89.47;95482.84;5021034;28;20319;-77
2023/07/08 06:01:57;;;;;;;15.33;9.40;;;;;;;20.53;89.47;95488.66;5050615;28;20316;-76
2023/07/08 06:04:23;;;;;;;12.93;9.23;;;;;;;20.61;89.03;95487.44;5047878;28;20217;-76
2023/07/08 06:06:48;;;;;;;14.43;9.30;;;;;;;20.64;89.22;95486.91;5029626;28;20236;-76
2023/07/08 06:09:14;;;;;;;14.57;9.20;;;;;;;20.72;89.04;95481.97;5028884;28;20315;-76
2023/07/08 06:11:39;;;;;;;15.00;9.47;;;;;;;20.75;88.37;95489.44;5019137;28;20237;-76
2023/07/08 06:14:05;;;;;;;15.13;9.40;;;;;;;20.70;88.34;95491.25;5037638;28;20364;-75
2023/07/08 06:16:30;;;;;;;13.60;9.73;;;;;;;20.72;87.74;95479.31;5049481;28;20252;-76
2023/07/08 06:18:57;;;;;;;14.63;9.80;;;;;;;20.85;86.99;95486.09;5029986;28;20218;-77
2023/07/08 06:21:23;;;;;;;16.63;9.77;;;;;;;20.87;87.35;95486.69;5015014;28;20257;-77
2023/07/08 06:23:49;;;;;;;15.17;9.20;;;;;;;20.79;86.99;95485.25;5029358;28;20261;-73
2023/07/08 06:26:14;;;;;;;15.23;9.23;;;;;;;20.75;86.80;95500.09;5035623;28;20235;-77
2023/07/08 06:28:39;;;;;;;14.00;9.20;;;;;;;20.77;87.11;95505.19;5050410;28;20237;-75
2023/07/08 06:31:05;;;;;;;13.27;9.30;;;;;;;20.81;86.88;95495.66;5046961;28;20232;-76
2023/07/08 06:33:30;;;;;;;15.03;9.30;;;;;;;20.79;86.47;95505.72;5051523;28;20236;-75
2023/07/08 06:35:56;;;;;;;12.10;8.47;;;;;;;20.83;85.98;95504.19;5049207;28;20227;-75
2023/07/08 06:38:21;;;;;;;14.40;8.70;;;;;;;20.85;84.90;95501.28;5043151;28;20233;-76
2023/07/08 06:40:47;;;;;;;15.03;8.50;;;;;;;20.96;85.41;95498.47;5016441;28;20711;-75
2023/07/08 06:43:13;;;;;;;12.25;8.30;;;;;;;21.06;84.70;95493.31;5034236;28;20291;-75
2023/07/08 06:45:38;;;;;;;13.43;7.80;;;;;;;21.04;84.71;95500.69;5037543;28;20255;-75
2023/07/08 06:48:03;;;;;;;14.87;7.80;;;;;;;20.97;84.25;95486.75;5041505;28;20263;-74
2023/07/08 06:50:30;;;;;;;15.48;7.85;;;;;;;21.03;83.75;95490.28;5066683;28;20620;-75
2023/07/08 06:52:55;;;;;;;19.93;8.43;;;;;;;21.04;84.08;95490.03;5023424;28;20679;-75
2023/07/08 06:55:21;;;;;;;13.77;8.33;;;;;;;21.21;85.44;95493.44;5036441;28;20219;-78
2023/07/08 06:57:47;;;;;;;14.30;7.93;;;;;;;21.21;83.20;95495.28;5051780;28;20720;-78
2023/07/08 07:00:12;;;;;;;11.13;7.70;;;;;;;21.08;81.33;95498.38;5050590;28;20232;-77
2023/07/08 07:02:38;;;;;;;12.17;7.33;;;;;;;20.94;82.22;95505.91;5039658;28;20245;-77
2023/07/08 07:05:04;;;;;;;13.73;7.83;;;;;;;20.96;82.46;95498.47;5054061;28;20299;-77
2023/07/08 07:07:29;;;;;;;15.57;7.50;;;;;;;21.00;81.96;95504.91;5041197;28;20241;-77
2023/07/08 07:09:55;;;;;;;12.67;7.67;;;;;;;20.96;80.74;95498.47;5051585;28;20282;-77
2023/07/08 07:12:21;;;;;;;13.33;7.73;;;;;;;21.11;81.39;95509.31;5041453;28;20901;-78
2023/07/08 07:14:46;;;;;;;13.93;7.60;;;;;;;21.24;81.38;95500.13;5047367;28;20229;-77
2023/07/08 07:17:12;;;;;;;12.20;7.57;;;;;;;21.44;80.84;95501.13;5030710;28;20229;-77
2023/07/08 07:19:37;;;;;;;11.73;7.77;;;;;;;21.64;81.18;95505.03;5054751;28;20237;-79
2023/07/08 07:22:03;;;;;;;12.50;8.10;;;;;;;21.56;80.06;95508.16;5038767;28;20263;-77
2023/07/08 07:24:29;;;;;;;13.57;8.20;;;;;;;21.50;79.19;95504.63;5033879;28;20706;-78
2023/07/08 07:26:54;;;;;;;13.37;7.90;;;;;;;21.52;79.95;95510.50;5017319;28;20237;-77
2023/07/08 07:29:21;;;;;;;14.13;8.13;;;;;;;21.47;80.17;95518.44;5041995;28;20233;-77
2023/07/08 07:31:47;;;;;;;11.60;8.20;;;;;;;21.63;80.91;95520.22;5024182;28;20294;-77
2023/07/08 07:34:14;;;;;;;12.33;7.90;;;;;;;21.56;79.24;95521.47;5052390;28;20758;-76
2023/07/08 07:36:39;;;;;;;13.27;8.37;;;;;;;21.43;80.23;95530.69;5039607;28;20228;-77
2023/07/08 07:39:05;;;;;;;13.50;8.20;;;;;;;21.43;80.48;95530.69;5048348;28;20226;-78
2023/07/08 07:41:30;;;;;;;11.37;8.40;;;;;;;21.34;79.94;95525.00;5035307;28;20738;-78
2023/07/08 07:43:55;;;;;;;13.03;8.63;;;;;;;21.45;81.13;95536.56;5047715;28;20230;-77
2023/07/08 07:46:21;;;;;;;13.47;8.43;;;;;;;21.54;79.85;95529.72;5020721;28;20232;-77
2023/07/08 07:48:46;;;;;;;10.83;8.17;;;;;;;21.54;79.91;95526.25;5055340;28;20228;-77
2023/07/08 07:51:12;;;;;;;11.03;7.97;;;;;;;21.42;80.60;95537.84;5028420;28;20711;-77
2023/07/08 07:53:38;;;;;;;15.57;8.40;;;;;;;21.37;80.16;95529.81;5018934;28;20241;-78
2023/07/08 07:56:04;;;;;;;10.37;7.77;;;;;;;21.45;80.18;95526.72;5024104;28;20223;-77
2023/07/08 07:58:29;;;;;;;12.83;8.27;;;;;;;21.53;80.61;95528.13;5023624;28;20376;-77
2023/07/08 08:00:55;;;;;;;11.55;7.95;;;;;;;21.54;79.13;95529.72;5034058;28;20226;-76
2023/07/08 08:03:20;;;;;;;16.92;8.10;;;;;;;21.66;79.58;95526.91;5013880;28;20240;-77
2023/07/08 08:05:46;;;;;;;11.70;7.73;;;;;;;21.69;79.88;95540.50;5006088;28;20238;-77
2023/07/08 08:08:12;;;;;;;12.07;7.87;;;;;;;21.78;79.01;95535.53;5019313;28;20218;-77
2023/07/08 08:10:37;;;;;;;10.43;7.80;;;;;;;21.82;79.21;95541.97;5033565;28;20230;-78
2023/07/08 08:13:03;;;;;;;11.93;8.10;;;;;;;21.82;79.13;95525.97;5029372;28;20302;-77
2023/07/08 08:15:28;;;;;;;11.53;8.20;;;;;;;21.89;79.76;95531.91;5024695;28;20313;-76
2023/07/08 08:17:54;;;;;;;11.40;8.20;;;;;;;22.03;78.32;95528.56;5029795;28;20261;-77
2023/07/08 08:20:20;;;;;;;11.50;8.17;;;;;;;22.29;78.66;95526.88;5020737;28;20612;-78
2023/07/08 08:22:46;;;;;;;11.53;7.70;;;;;;;22.39;76.52;95534.13;5027027;28;20225;-77
2023/07/08 08:25:12;;;;;;;12.20;8.07;;;;;;;22.18;76.06;95530.53;5013705;28;20233;-77
2023/07/08 08:27:37;;;;;;;10.10;7.40;;;;;;;22.23;75.98;95525.25;5025540;28;20234;-78
2023/07/08 08:30:04;;;;;;;14.87;8.17;;;;;;;22.16;76.68;95531.84;5018287;28;20226;-76
2023/07/08 08:32:30;;;;;;;14.30;8.02;;;;;;;22.37;75.78;95523.72;5003022;28;20271;-76
2023/07/08 08:34:55;;;;;;;11.95;8.07;;;;;;;22.68;76.34;95527.38;5030908;28;20234;-78
2023/07/08 08:37:21;;;;;;;11.25;7.80;;;;;;;22.75;76.50;95520.75;5018326;28;20293;-77
2023/07/08 08:39:46;;;;;;;10.63;7.50;;;;;;;22.78;75.04;95519.44;5013546;28;20867;-77
2023/07/08 08:42:19;;;;;;;11.32;7.90;;;;;;;22.82;74.70;95525.03;5019582;28;20224;-77
2023/07/08 08:44:45;;;;;;;13.68;7.85;;;;;;;22.86;75.56;95516.25;5016541;28;20229;-78
2023/07/08 08:47:38;;;;;;;11.65;7.90;;;;;;;22.93;75.26;95521.38;5049664;28;20841;-77
2023/07/08 08:50:11;;;;;;;12.90;8.50;;;;;;;23.20;75.20;95521.97;5019017;28;20313;-77
2023/07/08 08:52:36;;;;;;;10.80;8.20;;;;;;;23.21;73.66;95524.38;5026511;28;20762;-78
2023/07/08 08:55:02;;;;;;;11.38;8.50;;;;;;;23.30;73.40;95520.13;5056760;28;20217;-77
2023/07/08 08:57:37;;;;;;;14.20;8.27;;;;;;;23.53;73.35;95520.72;5020025;28;20233;-78
2023/07/08 09:00:03;;;;;;;12.30;7.72;;;;;;;23.55;72.23;95523.94;5008256;28;20321;-77
2023/07/08 09:02:31;;;;;;;12.05;8.00;;;;;;;23.62;71.76;95525.28;5022458;28;20222;-77
2023/07/08 09:05:00;;;;;;;12.20;8.02;;;;;;;23.57;72.76;95529.84;5026314;28;20310;-77
2023/07/08 09:07:25;;;;;;;15.95;8.15;;;;;;;23.52;72.51;95522.59;5019051;28;20316;-78
2023/07/08 09:10:04;;;;;;;9.93;7.10;;;;;;;23.58;71.80;95516.19;5011625;28;20237;-78
2023/07/08 09:12:30;;;;;;;11.98;8.00;;;;;;;23.77;72.07;95516.47;5022285;28;20237;-77
2023/07/08 09:14:56;;;;;;;10.68;7.47;;;;;;;23.82;71.59;95514.59;5015541;28;20233;-77
2023/07/08 09:17:32;;;;;;;13.25;7.57;;;;;;;23.92;73.07;95508.44;5010270;28;20226;-77
2023/07/08 09:20:05;;;;;;;12.27;7.97;;;;;;;23.96;71.80;95507.66;5028226;28;20321;-78
2023/07/08 09:22:54;;;;;;;11.50;8.32;;;;;;;24.09;71.76;95509.81;5030457;28;20238;-78
2023/07/08 09:25:27;;;;;;;9.77;7.40;;;;;;;24.01;70.59;95507.66;5026085;28;20393;-76
2023/07/08 09:27:53;;;;;;;11.50;7.30;;;;;;;24.04;71.31;95515.13;5016961;28;20777;-76
2023/07/08 09:30:20;;;;;;;11.40;7.40;;;;;;;24.12;71.83;95507.66;5028128;28;20221;-76
2023/07/08 09:32:46;;;;;;;9.02;6.90;;;;;;;24.21;70.03;95508.72;5011417;28;20332;-75
2023/07/08 09:35:22;;;;;;;10.02;6.95;;;;;;;24.19;69.04;95502.84;5021105;28;20744;-77
2023/07/08 09:37:47;;;;;;;10.02;6.90;;;;;;;24.26;69.83;95498.81;5016340;28;20662;-76
2023/07/08 09:40:21;;;;;;;12.07;7.30;;;;;;;24.18;70.34;95496.69;4997207;28;20228;-75
2023/07/08 09:42:49;;;;;;;9.45;6.93;;;;;;;24.48;69.39;95495.84;5039940;28;20668;-75
2023/07/08 09:45:18;;;;;;;10.30;6.82;;;;;;;24.53;68.24;95499.28;5037168;28;20230;-74
2023/07/08 09:47:45;;;;;;;13.20;7.07;;;;;;;24.45;67.56;95491.00;5052216;28;20241;-76
2023/07/08 09:50:26;;;;;;;10.57;7.22;;;;;;;24.35;69.12;95483.81;5045432;28;20776;-76
2023/07/08 09:52:57;;;;;;;12.23;7.18;;;;;;;24.55;68.66;95480.28;5027634;28;20233;-76
2023/07/08 09:55:23;;;;;;;10.32;6.80;;;;;;;24.69;67.86;95483.97;5015271;28;20719;-76
2023/07/08 09:57:50;;;;;;;11.60;6.75;;;;;;;24.68;69.44;95482.38;5024687;28;20725;-75
2023/07/08 10:00:18;;;;;;;11.27;6.90;;;;;;;24.81;68.34;95483.69;5026567;28;20240;-75
2023/07/08 10:02:43;;;;;;;11.10;6.78;;;;;;;24.68;68.04;95490.41;5018910;28;20232;-75
2023/07/08 10:05:14;;;;;;;10.88;6.40;;;;;;;24.63;66.81;95483.19;5051066;28;20232;-76
2023/07/08 10:07:40;;;;;;;10.77;6.65;;;;;;;24.90;67.76;95482.03;5036461;28;20233;-75
2023/07/08 10:10:14;;;;;;;8.90;6.45;;;;;;;24.99;66.03;95466.97;5044488;28;20249;-74
2023/07/08 10:12:40;;;;;;;9.57;6.47;;;;;;;25.14;64.36;95466.91;5033261;28;20239;-75
2023/07/08 10:15:12;;;;;;;9.98;6.80;;;;;;;25.07;64.79;95477.94;5029655;28;20228;-75
2023/07/08 10:17:39;;;;;;;11.18;6.50;;;;;;;24.97;65.23;95472.63;5020728;28;20693;-76
2023/07/08 10:20:10;;;;;;;9.70;6.47;;;;;;;25.14;64.33;95472.28;5016761;28;20225;-76
2023/07/08 10:23:10;;;;;;;9.05;6.65;;;;;;;24.88;64.65;95484.19;5036669;28;20274;-75
2023/07/08 10:25:47;;;;;;;9.38;6.30;;;;;;;25.09;64.33;95469.63;5051458;28;20239;-77
2023/07/08 10:28:37;;;;;;;8.32;6.15;;;;;;;25.28;63.67;95459.84;5020153;28;20229;-75
2023/07/08 10:31:25;;;;;;;9.23;6.15;;;;;;;25.15;64.18;95463.94;5054268;28;20226;-76
2023/07/08 10:34:00;;;;;;;8.55;6.20;;;;;;;25.33;63.98;95455.28;5030838;28;20250;-76
2023/07/08 10:36:47;;;;;;;9.93;6.10;;;;;;;25.34;63.32;95464.09;5012969;28;20315;-76
2023/07/08 10:39:37;;;;;;;7.72;5.88;;;;;;;25.49;64.67;95455.97;5021492;28;20249;-76
2023/07/08 10:42:46;;;;;;;7.95;6.15;;;;;;;25.60;63.26;95444.13;5026001;28;20280;-75
2023/07/08 10:45:45;;;;;;;9.45;6.30;;;;;;;25.39;63.14;95439.94;5029388;28;20222;-76
2023/07/08 10:48:29;;;;;;;8.50;6.10;;;;;;;25.51;63.63;95445.78;5003910;28;20233;-76
2023/07/08 10:51:22;;;;;;;8.13;5.88;;;;;;;25.58;62.55;95438.19;5039055;28;20235;-75
2023/07/08 10:54:03;;;;;;;10.88;5.95;;;;;;;25.59;61.46;95444.38;5025139;28;20254;-76
2023/07/08 10:56:41;;;;;;;10.35;5.85;;;;;;;25.70;61.36;95438.66;5030259;28;20230;-76
2023/07/08 10:59:32;;;;;;;7.93;5.90;;;;;;;25.79;61.28;95428.13;5027965;28;20221;-76
2023/07/08 11:02:12;;;;;;;7.50;5.90;;;;;;;25.80;61.85;95435.06;5038238;28;20243;-75
2023/07/08 11:05:03;;;;;;;6.80;5.70;;;;;;;25.52;62.42;95441.22;5030725;28;20230;-75
2023/07/08 11:07:30;;;;;;;6.93;5.68;;;;;;;25.64;61.45;95433.63;5035853;28;20237;-75
2023/07/08 11:10:15;;;;;;;7.70;5.78;;;;;;;25.80;61.88;95437.75;5033370;28;20239;-75
2023/07/08 11:12:49;;;;;;;6.72;5.72;;;;;;;25.79;61.46;95433.50;5017949;28;20553;-75
2023/07/08 11:15:30;;;;;;;8.43;5.70;;;;;;;25.74;62.79;95425.47;5015604;28;20232;-74
2023/07/08 11:18:00;;;;;;;6.78;5.47;;;;;;;25.85;61.42;95424.31;5014410;28;20237;-75
2023/07/08 11:20:43;;;;;;;9.50;5.95;;;;;;;25.90;61.59;95421.56;5017821;28;20976;-75
2023/07/08 11:23:33;;;;;;;9.07;5.95;;;;;;;25.78;60.92;95413.91;5021816;28;20234;-74
2023/07/08 11:26:11;;;;;;;7.88;5.85;;;;;;;25.82;60.65;95409.56;5015146;28;20241;-75
2023/07/08 11:28:36;;;;;;;11.35;6.10;;;;;;;25.96;61.54;95407.81;5017343;28;20276;-77
2023/07/08 11:31:03;;;;;;;9.25;5.75;;;;;;;26.10;61.24;95407.97;5026515;28;20234;-76